createdAt,value
2018-05-08T00:00:20.654Z,0.00
2018-05-08T00:01:20.685Z,0.00
2018-05-08T00:02:20.706Z,0.00
2018-05-08T00:03:20.685Z,0.00
2018-05-08T00:04:20.737Z,0.00
2018-05-08T00:05:20.723Z,0.00
2018-05-08T00:06:20.777Z,0.00
2018-05-08T00:07:20.740Z,0.00
2018-05-08T00:08:20.792Z,0.00
2018-05-08T00:09:20.762Z,0.00
2018-05-08T00:10:20.776Z,0.00
2018-05-08T00:11:20.832Z,0.00
2018-05-08T00:12:20.818Z,0.00
2018-05-08T00:13:20.809Z,0.00
2018-05-08T00:14:20.840Z,0.00
2018-05-08T00:15:20.837Z,0.00
2018-05-08T00:16:20.887Z,0.00
2018-05-08T00:17:20.860Z,0.00
2018-05-08T00:18:20.923Z,0.00
2018-05-08T00:19:20.902Z,0.00
2018-05-08T00:20:20.911Z,0.00
2018-05-08T00:21:20.910Z,0.00
2018-05-08T00:22:20.918Z,0.00
2018-05-08T00:23:21.014Z,0.00
2018-05-08T00:24:20.953Z,0.00
2018-05-08T00:25:20.975Z,0.00
2018-05-08T00:26:20.970Z,0.00
2018-05-08T00:27:20.992Z,0.00
2018-05-08T00:28:21.037Z,0.00
2018-05-08T00:29:21.877Z,0.00
2018-05-08T00:30:21.031Z,0.00
2018-05-08T00:31:21.050Z,0.00
2018-05-08T00:32:21.059Z,0.00
2018-05-08T00:33:21.091Z,0.00
2018-05-08T00:34:21.094Z,0.00
2018-05-08T00:35:21.079Z,0.00
2018-05-08T00:36:21.101Z,0.00
2018-05-08T00:37:21.113Z,0.00
2018-05-08T00:38:21.931Z,0.00
2018-05-08T00:39:21.132Z,0.00
2018-05-08T00:40:21.157Z,0.00
2018-05-08T00:41:21.168Z,0.00
2018-05-08T00:42:21.181Z,0.00
2018-05-08T00:43:21.195Z,0.00
2018-05-08T00:44:21.220Z,0.00
2018-05-08T00:45:21.267Z,0.00
2018-05-08T00:46:21.221Z,0.00
2018-05-08T00:55:58.295Z,0.00
2018-05-08T00:56:58.310Z,0.00
2018-05-08T00:57:58.277Z,0.00
2018-05-08T00:58:58.293Z,0.00
2018-05-08T00:59:58.300Z,0.00
2018-05-08T01:00:58.387Z,0.00
2018-05-08T01:01:58.314Z,0.00
2018-05-08T01:02:58.381Z,0.00
2018-05-08T01:03:58.344Z,0.00
2018-05-08T01:04:58.361Z,0.00
2018-05-08T01:05:58.410Z,0.00
2018-05-08T01:06:58.436Z,0.00
2018-05-08T01:07:58.396Z,0.00
2018-05-08T01:08:58.394Z,0.00
2018-05-08T01:09:58.439Z,0.00
2018-05-08T01:10:58.488Z,0.00
2018-05-08T01:11:58.457Z,0.00
2018-05-08T01:12:58.465Z,0.00
2018-05-08T01:13:58.460Z,0.00
2018-05-08T01:14:58.473Z,0.00
2018-05-08T01:15:58.536Z,0.00
2018-05-08T01:16:58.566Z,0.00
2018-05-08T01:17:58.542Z,0.00
2018-05-08T01:18:58.535Z,0.00
2018-05-08T01:19:58.531Z,0.00
2018-05-08T01:20:58.579Z,0.00
2018-05-08T01:21:58.622Z,0.00
2018-05-08T01:22:58.574Z,0.00
2018-05-08T01:23:58.597Z,0.00
2018-05-08T01:24:58.725Z,0.00
2018-05-08T01:25:58.618Z,0.00
2018-05-08T01:26:58.661Z,0.00
2018-05-08T01:27:58.665Z,0.00
2018-05-08T01:28:58.665Z,0.00
2018-05-08T01:29:59.914Z,0.00
2018-05-08T01:30:58.810Z,0.00
2018-05-08T01:31:58.719Z,0.00
2018-05-08T01:32:58.832Z,0.00
2018-05-08T01:33:58.722Z,0.00
2018-05-08T01:34:58.722Z,0.00
2018-05-08T01:35:58.808Z,0.00
2018-05-08T01:36:58.740Z,0.00
2018-05-08T01:37:58.747Z,0.00
2018-05-08T01:38:58.804Z,0.00
2018-05-08T01:39:58.809Z,0.00
2018-05-08T01:40:59.482Z,0.00
2018-05-08T01:41:58.815Z,0.00
2018-05-08T01:42:58.868Z,0.00
2018-05-08T01:43:58.885Z,0.00
2018-05-08T01:44:58.886Z,0.00
2018-05-08T01:45:58.854Z,0.00
2018-05-08T01:46:58.857Z,0.00
2018-05-08T01:47:58.862Z,0.00
2018-05-08T01:48:58.907Z,0.00
2018-05-08T01:49:58.924Z,0.00
2018-05-08T01:50:58.926Z,0.00
2018-05-08T01:51:58.937Z,0.00
2018-05-08T01:52:58.939Z,0.00
2018-05-08T01:53:58.939Z,0.00
2018-05-08T01:54:59.002Z,0.00
2018-05-08T01:55:58.971Z,0.00
2018-05-08T01:56:58.980Z,0.00
2018-05-08T01:57:59.032Z,0.00
2018-05-08T01:58:59.004Z,0.00
2018-05-08T01:59:59.023Z,0.00
2018-05-08T02:00:59.043Z,0.00
2018-05-08T02:01:59.067Z,0.00
2018-05-08T02:02:59.093Z,0.00
2018-05-08T02:03:59.135Z,0.00
2018-05-08T02:05:00.135Z,0.00
2018-05-08T02:05:59.101Z,0.00
2018-05-08T02:06:59.090Z,0.00
2018-05-08T02:07:59.111Z,0.00
2018-05-08T02:08:59.207Z,0.00
2018-05-08T02:09:59.183Z,0.00
2018-05-08T02:10:59.133Z,0.00
2018-05-08T02:11:59.183Z,0.00
2018-05-08T02:12:59.201Z,0.00
2018-05-08T02:13:59.196Z,0.00
2018-05-08T02:14:59.232Z,0.00
2018-05-08T02:15:59.222Z,0.00
2018-05-08T02:16:59.231Z,0.00
2018-05-08T02:17:59.231Z,0.00
2018-05-08T02:18:59.240Z,0.00
2018-05-08T02:19:59.292Z,0.00
2018-05-08T02:20:59.272Z,0.00
2018-05-08T02:21:59.283Z,0.00
2018-05-08T02:22:59.299Z,0.00
2018-05-08T02:23:59.317Z,0.00
2018-05-08T02:24:59.361Z,0.00
2018-05-08T02:25:59.390Z,0.00
2018-05-08T02:26:59.330Z,0.00
2018-05-08T02:27:59.369Z,0.00
2018-05-08T02:28:59.358Z,0.00
2018-05-08T02:29:59.369Z,0.00
2018-05-08T02:30:59.419Z,0.00
2018-05-08T02:31:59.402Z,0.00
2018-05-08T02:32:59.418Z,0.00
2018-05-08T02:33:59.417Z,0.00
2018-05-08T02:34:59.445Z,0.00
2018-05-08T02:35:59.485Z,0.00
2018-05-08T02:36:59.458Z,0.00
2018-05-08T02:37:59.513Z,0.00
2018-05-08T02:38:59.519Z,0.00
2018-05-08T02:39:59.536Z,0.00
2018-05-08T02:40:59.502Z,0.00
2018-05-08T02:41:59.508Z,0.00
2018-05-08T02:42:59.525Z,0.00
2018-05-08T02:43:59.528Z,4.00
2018-05-08T02:44:59.616Z,0.00
2018-05-08T02:45:59.568Z,0.00
2018-05-08T02:46:59.577Z,0.00
2018-05-08T02:47:59.597Z,4.00
2018-05-08T02:48:59.584Z,0.00
2018-05-08T02:49:59.619Z,4.00
2018-05-08T02:50:59.668Z,4.00
2018-05-08T02:51:59.650Z,4.00
2018-05-08T02:52:59.655Z,8.00
2018-05-08T02:53:59.661Z,4.00
2018-05-08T02:54:59.660Z,4.00
2018-05-08T02:55:59.711Z,4.00
2018-05-08T02:56:59.703Z,8.00
2018-05-08T02:57:59.699Z,8.00
2018-05-08T02:58:59.738Z,8.00
2018-05-08T02:59:59.719Z,12.00
2018-05-08T03:00:59.769Z,12.00
2018-05-08T03:01:59.769Z,16.00
2018-05-08T03:02:59.787Z,16.00
2018-05-08T03:03:59.767Z,20.00
2018-05-08T03:04:59.777Z,20.00
2018-05-08T03:05:59.803Z,24.00
2018-05-08T03:06:59.831Z,28.00
2018-05-08T03:07:59.826Z,28.00
2018-05-08T03:08:59.824Z,32.00
2018-05-08T03:09:59.868Z,40.00
2018-05-08T03:10:59.858Z,40.00
2018-05-08T03:11:59.873Z,48.00
2018-05-08T03:12:59.911Z,52.00
2018-05-08T03:13:59.881Z,56.00
2018-05-08T03:14:59.888Z,64.00
2018-05-08T03:15:59.936Z,68.00
2018-05-08T03:16:59.909Z,76.00
2018-05-08T03:17:59.931Z,80.00
2018-05-08T03:18:59.960Z,88.00
2018-05-08T03:19:59.984Z,92.00
2018-05-08T03:20:59.952Z,100.00
2018-05-08T03:21:59.969Z,112.00
2018-05-08T03:23:00.009Z,120.00
2018-05-08T03:24:00.006Z,128.00
2018-05-08T03:25:00.043Z,140.00
2018-05-08T03:26:00.018Z,148.00
2018-05-08T03:27:00.031Z,156.00
2018-05-08T03:28:00.042Z,168.00
2018-05-08T03:29:00.056Z,180.00
2018-05-08T03:30:00.081Z,192.00
2018-05-08T03:31:00.091Z,204.00
2018-05-08T03:32:00.077Z,216.00
2018-05-08T03:33:00.119Z,228.00
2018-05-08T03:34:00.124Z,244.00
2018-05-08T03:35:00.111Z,256.00
2018-05-08T03:36:00.260Z,272.00
2018-05-08T03:37:00.151Z,288.00
2018-05-08T03:38:00.174Z,304.00
2018-05-08T03:39:00.170Z,320.00
2018-05-08T03:40:00.172Z,336.00
2018-05-08T03:41:00.195Z,352.00
2018-05-08T03:42:00.237Z,368.00
2018-05-08T03:43:00.205Z,388.00
2018-05-08T03:44:00.215Z,412.00
2018-05-08T03:45:00.218Z,440.00
2018-05-08T03:46:00.262Z,472.00
2018-05-08T03:47:00.272Z,532.00
2018-05-08T03:48:00.281Z,644.00
2018-05-08T03:49:00.283Z,756.00
2018-05-08T03:50:00.323Z,844.00
2018-05-08T03:51:00.298Z,948.00
2018-05-08T03:52:00.332Z,1040.00
2018-05-08T03:53:00.350Z,1108.00
2018-05-08T03:54:00.331Z,1180.00
2018-05-08T03:55:00.385Z,1256.00
2018-05-08T03:56:00.345Z,1332.00
2018-05-08T03:57:00.356Z,1404.00
2018-05-08T03:58:00.368Z,1484.00
2018-05-08T03:59:00.384Z,1568.00
2018-05-08T04:00:00.469Z,1660.00
2018-05-08T04:01:00.436Z,1748.00
2018-05-08T04:02:00.429Z,1836.00
2018-05-08T04:03:00.434Z,1924.00
2018-05-08T04:04:00.449Z,2012.00
2018-05-08T04:05:00.456Z,2112.00
2018-05-08T04:06:00.512Z,2196.00
2018-05-08T04:07:00.500Z,2308.00
2018-05-08T04:08:00.526Z,2412.00
2018-05-08T04:09:00.492Z,2536.00
2018-05-08T04:10:00.520Z,2660.00
2018-05-08T04:11:00.544Z,2804.00
2018-05-08T04:12:00.543Z,2936.00
2018-05-08T04:13:00.603Z,3068.00
2018-05-08T04:14:00.598Z,3188.00
2018-05-08T04:15:00.577Z,3308.00
2018-05-08T04:16:00.583Z,3444.00
2018-05-08T04:17:00.591Z,3548.00
2018-05-08T04:18:00.651Z,3644.00
2018-05-08T04:19:00.619Z,3716.00
2018-05-08T04:20:00.667Z,3772.00
2018-05-08T04:21:00.694Z,3844.00
2018-05-08T04:22:00.676Z,3908.00
2018-05-08T04:23:00.676Z,3980.00
2018-05-08T04:24:00.685Z,4076.00
2018-05-08T04:25:00.693Z,4168.00
2018-05-08T04:26:00.702Z,4244.00
2018-05-08T04:27:00.744Z,4336.00
2018-05-08T04:28:00.743Z,4456.00
2018-05-08T04:29:00.728Z,4608.00
2018-05-08T04:30:00.741Z,4812.00
2018-05-08T04:31:00.774Z,4996.00
2018-05-08T04:32:00.825Z,5144.00
2018-05-08T04:33:00.806Z,5236.00
2018-05-08T04:34:00.823Z,5296.00
2018-05-08T04:35:00.812Z,5368.00
2018-05-08T04:36:00.853Z,5472.00
2018-05-08T04:37:00.825Z,5652.00
2018-05-08T04:38:00.846Z,5984.00
2018-05-08T04:39:00.907Z,6236.00
2018-05-08T04:40:00.907Z,6624.00
2018-05-08T04:41:00.892Z,6924.00
2018-05-08T04:42:00.895Z,7276.00
2018-05-08T04:43:00.912Z,7596.00
2018-05-08T04:44:00.959Z,7980.00
2018-05-08T04:45:00.950Z,8300.00
2018-05-08T04:46:00.975Z,8560.00
2018-05-08T04:47:00.977Z,8696.00
2018-05-08T04:48:01.005Z,8788.00
2018-05-08T04:49:00.989Z,8848.00
2018-05-08T04:50:00.992Z,8876.00
2018-05-08T04:51:01.041Z,8924.00
2018-05-08T04:52:01.009Z,9120.00
2018-05-08T04:53:01.077Z,9496.00
2018-05-08T04:54:01.045Z,10004.00
2018-05-08T04:55:01.096Z,10516.00
2018-05-08T04:56:01.065Z,11088.00
2018-05-08T04:57:01.116Z,11728.00
2018-05-08T04:58:01.106Z,12380.00
2018-05-08T04:59:01.125Z,12884.00
2018-05-08T05:00:01.151Z,13172.00
2018-05-08T05:01:01.136Z,13292.00
2018-05-08T05:02:01.169Z,13580.00
2018-05-08T05:03:01.213Z,13824.00
2018-05-08T05:04:01.171Z,13888.00
2018-05-08T05:05:01.200Z,13984.00
2018-05-08T05:06:01.206Z,13984.00
2018-05-08T05:07:01.303Z,13920.00
2018-05-08T05:08:01.286Z,13920.00
2018-05-08T05:09:01.256Z,13728.00
2018-05-08T05:10:01.264Z,13656.00
2018-05-08T05:11:01.369Z,13548.00
2018-05-08T05:12:01.294Z,13560.00
2018-05-08T05:13:01.332Z,13740.00
2018-05-08T05:14:01.375Z,13892.00
2018-05-08T05:15:01.348Z,13972.00
2018-05-08T05:16:01.366Z,14144.00
2018-05-08T05:17:01.362Z,13728.00
2018-05-08T05:18:01.400Z,13292.00
2018-05-08T05:19:01.483Z,13556.00
2018-05-08T05:20:01.441Z,14368.00
2018-05-08T05:21:01.428Z,14528.00
2018-05-08T05:22:01.446Z,14128.00
2018-05-08T05:23:01.533Z,13544.00
2018-05-08T05:24:01.547Z,12744.00
2018-05-08T05:25:01.495Z,12076.00
2018-05-08T05:26:01.549Z,12300.00
2018-05-08T05:27:01.524Z,13476.00
2018-05-08T05:28:01.568Z,14496.00
2018-05-08T05:29:01.568Z,14496.00
2018-05-08T05:30:01.597Z,13984.00
2018-05-08T05:31:01.641Z,13776.00
2018-05-08T05:32:01.641Z,13980.00
2018-05-08T05:33:01.660Z,14192.00
2018-05-08T05:34:01.689Z,14400.00
2018-05-08T05:35:01.680Z,14048.00
2018-05-08T05:36:01.678Z,13580.00
2018-05-08T05:37:01.748Z,12928.00
2018-05-08T05:38:01.722Z,12108.00
2018-05-08T05:39:01.777Z,11224.00
2018-05-08T05:40:01.759Z,10284.00
2018-05-08T05:41:01.847Z,9192.00
2018-05-08T05:42:01.781Z,7880.00
2018-05-08T05:43:01.869Z,6552.00
2018-05-08T05:44:01.848Z,5252.00
2018-05-08T05:45:01.849Z,4128.00
2018-05-08T05:46:01.862Z,3188.00
2018-05-08T05:47:01.875Z,2840.00
2018-05-08T05:48:01.924Z,2868.00
2018-05-08T05:49:01.944Z,2904.00
2018-05-08T05:50:01.926Z,2944.00
2018-05-08T05:51:01.986Z,2988.00
2018-05-08T05:52:01.965Z,3044.00
2018-05-08T05:53:01.977Z,3064.00
2018-05-08T05:54:02.006Z,2888.00
2018-05-08T05:55:02.018Z,2728.00
2018-05-08T05:56:02.061Z,2656.00
2018-05-08T05:57:02.043Z,2488.00
2018-05-08T05:58:02.097Z,2260.00
2018-05-08T05:59:02.087Z,2132.00
2018-05-08T06:00:02.180Z,2024.00
2018-05-08T06:01:02.159Z,2004.00
2018-05-08T06:02:02.170Z,2080.00
2018-05-08T06:03:02.155Z,2220.00
2018-05-08T06:04:02.171Z,2440.00
2018-05-08T06:05:02.184Z,2656.00
2018-05-08T06:06:02.242Z,2784.00
2018-05-08T06:07:02.270Z,2876.00
2018-05-08T06:08:02.249Z,2664.00
2018-05-08T06:09:03.228Z,2228.00
2018-05-08T06:10:02.264Z,1920.00
2018-05-08T06:11:02.266Z,1772.00
2018-05-08T06:12:02.362Z,1752.00
2018-05-08T06:13:02.301Z,1740.00
2018-05-08T06:14:02.337Z,1752.00
2018-05-08T06:15:02.348Z,1748.00
2018-05-08T06:16:02.366Z,1748.00
2018-05-08T06:17:02.407Z,1740.00
2018-05-08T06:18:02.396Z,1720.00
2018-05-08T06:19:02.409Z,1720.00
2018-05-08T06:20:02.449Z,1724.00
2018-05-08T06:21:02.431Z,1716.00
2018-05-08T06:22:02.445Z,1720.00
2018-05-08T06:23:02.491Z,1712.00
2018-05-08T06:24:02.463Z,1716.00
2018-05-08T06:25:02.497Z,1708.00
2018-05-08T06:26:02.492Z,1708.00
2018-05-08T06:27:02.553Z,1704.00
2018-05-08T06:28:02.529Z,1708.00
2018-05-08T06:29:02.555Z,1732.00
2018-05-08T06:30:02.551Z,1820.00
2018-05-08T06:31:02.561Z,1960.00
2018-05-08T06:32:02.630Z,2144.00
2018-05-08T06:33:02.634Z,2388.00
2018-05-08T06:34:02.623Z,2668.00
2018-05-08T06:35:02.671Z,2808.00
2018-05-08T06:36:02.648Z,3020.00
2018-05-08T06:37:02.667Z,2964.00
2018-05-08T06:38:02.670Z,2324.00
2018-05-08T06:39:02.695Z,1848.00
2018-05-08T06:40:02.804Z,1664.00
2018-05-08T06:41:02.704Z,1632.00
2018-05-08T06:42:02.731Z,1648.00
2018-05-08T06:43:02.746Z,1640.00
2018-05-08T06:44:02.769Z,1640.00
2018-05-08T06:45:02.820Z,1660.00
2018-05-08T06:46:02.784Z,1676.00
2018-05-08T06:47:02.793Z,1668.00
2018-05-08T06:48:02.821Z,1668.00
2018-05-08T06:49:02.852Z,1668.00
2018-05-08T06:50:02.894Z,1664.00
2018-05-08T06:51:02.925Z,1660.00
2018-05-08T06:52:02.869Z,1644.00
2018-05-08T06:53:02.886Z,1636.00
2018-05-08T06:54:02.895Z,1636.00
2018-05-08T06:55:02.930Z,1628.00
2018-05-08T06:56:02.956Z,1620.00
2018-05-08T06:57:02.943Z,1620.00
2018-05-08T06:58:02.949Z,1604.00
2018-05-08T06:59:03.061Z,1600.00
2018-05-08T07:00:02.971Z,1604.00
2018-05-08T07:01:03.056Z,1612.00
2018-05-08T07:02:02.997Z,1620.00
2018-05-08T07:03:03.107Z,1584.00
2018-05-08T07:04:03.031Z,1584.00
2018-05-08T07:05:03.043Z,1568.00
2018-05-08T07:06:03.105Z,1556.00
2018-05-08T07:07:03.110Z,1560.00
2018-05-08T07:08:03.117Z,1540.00
2018-05-08T07:09:03.183Z,1560.00
2018-05-08T07:10:03.126Z,1544.00
2018-05-08T07:11:03.145Z,1520.00
2018-05-08T07:12:03.155Z,1516.00
2018-05-08T07:13:03.227Z,1500.00
2018-05-08T07:14:03.171Z,1492.00
2018-05-08T07:15:03.193Z,1484.00
2018-05-08T07:16:03.378Z,1484.00
2018-05-08T07:17:03.226Z,1472.00
2018-05-08T07:18:03.256Z,1468.00
2018-05-08T07:19:03.256Z,1476.00
2018-05-08T07:20:03.249Z,1452.00
2018-05-08T07:21:03.353Z,1480.00
2018-05-08T07:22:03.276Z,1444.00
2018-05-08T07:23:03.296Z,1440.00
2018-05-08T07:24:03.419Z,1456.00
2018-05-08T07:25:03.340Z,1448.00
2018-05-08T07:26:03.349Z,1444.00
2018-05-08T07:27:03.358Z,1436.00
2018-05-08T07:28:03.369Z,1428.00
2018-05-08T07:29:03.413Z,1424.00
2018-05-08T07:30:03.439Z,1416.00
2018-05-08T07:31:03.404Z,1444.00
2018-05-08T07:32:03.433Z,1440.00
2018-05-08T07:33:03.495Z,1436.00
2018-05-08T07:34:03.448Z,1428.00
2018-05-08T07:35:03.471Z,1424.00
2018-05-08T07:36:03.483Z,1400.00
2018-05-08T07:37:03.498Z,1412.00
2018-05-08T07:38:03.606Z,1404.00
2018-05-08T07:39:03.510Z,1396.00
2018-05-08T07:40:03.685Z,1364.00
2018-05-08T07:41:03.589Z,1372.00
2018-05-08T07:42:03.566Z,1364.00
2018-05-08T07:43:03.568Z,1372.00
2018-05-08T07:44:03.578Z,1364.00
2018-05-08T07:45:03.724Z,1256.00
2018-05-08T07:46:03.644Z,1256.00
2018-05-08T07:47:03.627Z,1252.00
2018-05-08T07:48:03.657Z,1252.00
2018-05-08T07:49:03.758Z,1252.00
2018-05-08T07:50:03.674Z,1244.00
2018-05-08T07:51:03.728Z,1236.00
2018-05-08T07:52:03.700Z,1232.00
2018-05-08T07:53:03.745Z,1228.00
2018-05-08T07:54:03.759Z,1228.00
2018-05-08T07:55:03.748Z,1224.00
2018-05-08T07:56:03.769Z,1220.00
2018-05-08T07:57:03.775Z,1216.00
2018-05-08T07:58:03.782Z,1212.00
2018-05-08T07:59:03.832Z,1188.00
2018-05-08T08:00:03.820Z,1188.00
2018-05-08T08:01:03.826Z,1180.00
2018-05-08T08:02:03.850Z,1180.00
2018-05-08T08:03:03.861Z,1176.00
2018-05-08T08:04:03.908Z,1172.00
2018-05-08T08:05:03.876Z,1164.00
2018-05-08T08:06:03.919Z,1164.00
2018-05-08T08:07:03.894Z,1160.00
2018-05-08T08:08:03.958Z,1160.00
2018-05-08T08:09:03.940Z,1160.00
2018-05-08T08:10:03.957Z,1152.00
2018-05-08T08:11:04.016Z,1148.00
2018-05-08T08:12:03.981Z,1148.00
2018-05-08T08:13:03.989Z,1148.00
2018-05-08T08:14:04.036Z,1144.00
2018-05-08T08:15:04.010Z,1144.00
2018-05-08T08:16:04.123Z,1140.00
2018-05-08T08:17:04.060Z,1140.00
2018-05-08T08:18:04.071Z,1132.00
2018-05-08T08:19:04.084Z,1132.00
2018-05-08T08:20:04.094Z,1128.00
2018-05-08T08:21:04.161Z,1128.00
2018-05-08T08:22:04.208Z,1124.00
2018-05-08T08:23:04.146Z,1124.00
2018-05-08T08:24:04.139Z,1128.00
2018-05-08T08:25:04.175Z,1124.00
2018-05-08T08:26:04.201Z,1128.00
2018-05-08T08:27:04.212Z,1128.00
2018-05-08T08:28:04.245Z,1128.00
2018-05-08T08:29:04.227Z,1128.00
2018-05-08T08:30:04.239Z,1124.00
2018-05-08T08:31:04.256Z,1124.00
2018-05-08T08:32:04.307Z,1132.00
2018-05-08T08:33:04.283Z,1124.00
2018-05-08T08:34:04.282Z,1116.00
2018-05-08T08:35:04.289Z,1120.00
2018-05-08T08:36:04.329Z,1128.00
2018-05-08T08:37:04.363Z,1128.00
2018-05-08T08:38:04.335Z,1120.00
2018-05-08T08:39:04.348Z,1128.00
2018-05-08T08:40:04.429Z,1124.00
2018-05-08T08:41:04.389Z,1124.00
2018-05-08T08:42:04.385Z,1124.00
2018-05-08T08:43:04.447Z,1120.00
2018-05-08T08:44:04.423Z,1120.00
2018-05-08T08:45:04.469Z,1120.00
2018-05-08T08:46:04.450Z,1104.00
2018-05-08T08:47:04.479Z,1112.00
2018-05-08T08:48:04.543Z,1120.00
2018-05-08T08:49:04.487Z,1120.00
2018-05-08T08:50:04.507Z,1120.00
2018-05-08T08:51:04.541Z,1116.00
2018-05-08T08:52:04.578Z,1116.00
2018-05-08T08:53:04.546Z,1108.00
2018-05-08T08:54:04.571Z,1108.00
2018-05-08T08:55:04.617Z,1100.00
2018-05-08T08:56:04.633Z,1100.00
2018-05-08T08:57:04.611Z,1096.00
2018-05-08T08:58:04.625Z,1092.00
2018-05-08T08:59:04.701Z,1088.00
2018-05-08T09:00:04.653Z,1088.00
2018-05-08T09:01:04.674Z,1084.00
2018-05-08T09:02:04.695Z,1084.00
2018-05-08T09:03:04.699Z,1084.00
2018-05-08T09:04:04.815Z,1140.00
2018-05-08T09:05:04.735Z,1172.00
2018-05-08T09:06:04.767Z,1168.00
2018-05-08T09:07:04.747Z,1164.00
2018-05-08T09:08:04.819Z,1156.00
2018-05-08T09:09:04.798Z,1164.00
2018-05-08T09:10:04.836Z,1160.00
2018-05-08T09:11:04.824Z,1156.00
2018-05-08T09:12:04.833Z,1156.00
2018-05-08T09:13:04.899Z,1152.00
2018-05-08T09:14:04.853Z,1152.00
2018-05-08T09:15:04.873Z,1148.00
2018-05-08T09:16:04.890Z,1148.00
2018-05-08T09:17:04.927Z,1148.00
2018-05-08T09:18:04.963Z,1148.00
2018-05-08T09:19:04.925Z,1140.00
2018-05-08T09:20:04.990Z,1140.00
2018-05-08T09:21:04.979Z,1140.00
2018-05-08T09:22:04.987Z,1140.00
2018-05-08T09:23:04.981Z,1144.00
2018-05-08T09:24:05.019Z,1144.00
2018-05-08T09:25:05.093Z,1140.00
2018-05-08T09:26:05.061Z,1136.00
2018-05-08T09:27:05.049Z,1140.00
2018-05-08T09:28:05.079Z,1136.00
2018-05-08T09:29:05.066Z,1136.00
2018-05-08T09:30:05.125Z,1052.00
2018-05-08T09:31:05.105Z,1132.00
2018-05-08T09:32:05.128Z,1132.00
2018-05-08T09:33:05.359Z,1132.00
2018-05-08T09:34:05.162Z,1100.00
2018-05-08T09:35:05.223Z,1124.00
2018-05-08T09:36:05.166Z,1040.00
2018-05-08T09:37:05.197Z,1116.00
2018-05-08T09:38:05.202Z,1112.00
2018-05-08T09:39:05.211Z,1112.00
2018-05-08T09:40:05.304Z,1112.00
2018-05-08T09:41:05.338Z,1112.00
2018-05-08T09:42:05.262Z,1112.00
2018-05-08T09:43:05.277Z,1116.00
2018-05-08T09:44:05.299Z,1112.00
2018-05-08T09:45:05.300Z,1112.00
2018-05-08T09:46:05.386Z,1108.00
2018-05-08T09:47:05.380Z,1112.00
2018-05-08T09:48:05.356Z,1120.00
2018-05-08T09:49:05.455Z,1120.00
2018-05-08T09:50:05.417Z,1120.00
2018-05-08T09:51:05.461Z,1120.00
2018-05-08T09:52:05.452Z,1132.00
2018-05-08T09:53:05.430Z,1136.00
2018-05-08T09:54:05.483Z,1140.00
2018-05-08T09:55:05.455Z,1184.00
2018-05-08T09:56:05.476Z,1192.00
2018-05-08T09:57:05.513Z,1204.00
2018-05-08T09:58:05.541Z,1212.00
2018-05-08T09:59:05.517Z,1220.00
2018-05-08T10:00:05.570Z,1220.00
2018-05-08T10:01:05.591Z,1220.00
2018-05-08T10:02:05.606Z,1220.00
2018-05-08T10:03:05.572Z,1212.00
2018-05-08T10:04:05.639Z,1208.00
2018-05-08T10:05:05.610Z,1216.00
2018-05-08T10:06:05.618Z,1216.00
2018-05-08T10:07:05.658Z,1212.00
2018-05-08T10:08:05.678Z,1212.00
2018-05-08T10:09:05.649Z,1204.00
2018-05-08T10:10:05.678Z,1216.00
2018-05-08T10:11:05.684Z,1228.00
2018-05-08T10:12:05.708Z,1244.00
2018-05-08T10:13:05.759Z,1264.00
2018-05-08T10:14:05.725Z,1268.00
2018-05-08T10:15:05.754Z,1272.00
2018-05-08T10:16:05.811Z,1200.00
2018-05-08T10:17:05.802Z,1196.00
2018-05-08T10:18:05.791Z,1200.00
2018-05-08T10:19:05.799Z,1208.00
2018-05-08T10:20:05.809Z,1208.00
2018-05-08T10:21:05.933Z,1212.00
2018-05-08T10:22:05.839Z,1212.00
2018-05-08T10:23:05.879Z,1260.00
2018-05-08T10:24:05.883Z,1256.00
2018-05-08T10:25:05.888Z,1260.00
2018-05-08T10:26:05.938Z,1248.00
2018-05-08T10:27:05.949Z,1240.00
2018-05-08T10:28:05.945Z,1228.00
2018-05-08T10:29:05.961Z,1224.00
2018-05-08T10:30:05.969Z,1220.00
2018-05-08T10:31:06.031Z,1220.00
2018-05-08T10:32:06.101Z,1212.00
2018-05-08T10:33:06.015Z,1208.00
2018-05-08T10:34:06.028Z,1204.00
2018-05-08T10:35:06.064Z,1204.00
2018-05-08T10:36:06.111Z,1212.00
2018-05-08T10:37:06.075Z,1208.00
2018-05-08T10:38:06.084Z,1220.00
2018-05-08T10:39:06.178Z,1176.00
2018-05-08T10:40:06.156Z,1256.00
2018-05-08T10:41:06.192Z,1252.00
2018-05-08T10:42:06.147Z,1248.00
2018-05-08T10:43:06.257Z,1248.00
2018-05-08T10:44:06.189Z,1244.00
2018-05-08T10:45:06.197Z,1248.00
2018-05-08T10:46:06.244Z,1156.00
2018-05-08T10:47:06.316Z,1148.00
2018-05-08T10:48:06.235Z,1144.00
2018-05-08T10:49:06.246Z,1140.00
2018-05-08T10:50:06.270Z,1136.00
2018-05-08T10:51:06.337Z,1132.00
2018-05-08T10:52:06.304Z,1220.00
2018-05-08T10:53:06.352Z,1216.00
2018-05-08T10:54:06.352Z,1216.00
2018-05-08T10:55:06.333Z,1164.00
2018-05-08T10:56:06.368Z,1176.00
2018-05-08T10:57:06.381Z,1176.00
2018-05-08T10:58:06.443Z,1220.00
2018-05-08T10:59:06.391Z,1224.00
2018-05-08T11:00:06.429Z,1136.00
2018-05-08T11:01:06.431Z,1140.00
2018-05-08T11:02:06.457Z,1140.00
2018-05-08T11:03:06.530Z,1140.00
2018-05-08T11:04:06.523Z,1140.00
2018-05-08T11:05:06.484Z,1140.00
2018-05-08T11:06:06.531Z,1132.00
2018-05-08T11:07:06.516Z,1136.00
2018-05-08T11:08:06.600Z,1140.00
2018-05-08T11:09:06.606Z,1140.00
2018-05-08T11:10:06.569Z,1132.00
2018-05-08T11:11:06.573Z,1140.00
2018-05-08T11:12:06.598Z,1136.00
2018-05-08T11:13:06.659Z,1140.00
2018-05-08T11:14:06.629Z,1140.00
2018-05-08T11:15:06.635Z,1136.00
2018-05-08T11:16:06.703Z,1140.00
2018-05-08T11:17:06.674Z,1136.00
2018-05-08T11:18:06.700Z,1136.00
2018-05-08T11:19:06.710Z,1136.00
2018-05-08T11:20:06.716Z,1140.00
2018-05-08T11:21:06.817Z,1144.00
2018-05-08T11:22:06.749Z,1140.00
2018-05-08T11:23:06.757Z,1140.00
2018-05-08T11:24:06.785Z,1140.00
2018-05-08T11:25:06.792Z,1140.00
2018-05-08T11:26:06.849Z,1140.00
2018-05-08T11:27:06.861Z,1144.00
2018-05-08T11:28:06.874Z,1140.00
2018-05-08T11:29:06.875Z,1140.00
2018-05-08T11:30:06.895Z,1144.00
2018-05-08T11:31:06.895Z,1144.00
2018-05-08T11:32:06.984Z,1144.00
2018-05-08T11:33:06.923Z,1148.00
2018-05-08T11:34:06.926Z,1152.00
2018-05-08T11:35:06.969Z,1148.00
2018-05-08T11:36:06.961Z,1152.00
2018-05-08T11:37:07.010Z,1156.00
2018-05-08T11:38:07.033Z,1156.00
2018-05-08T11:39:07.023Z,1156.00
2018-05-08T11:40:07.010Z,1156.00
2018-05-08T11:41:07.099Z,1156.00
2018-05-08T11:42:07.068Z,1156.00
2018-05-08T11:43:07.138Z,1160.00
2018-05-08T11:44:07.087Z,1168.00
2018-05-08T11:45:07.154Z,1168.00
2018-05-08T11:46:07.135Z,1172.00
2018-05-08T11:47:07.130Z,1180.00
2018-05-08T11:48:07.153Z,1184.00
2018-05-08T11:49:07.236Z,1188.00
2018-05-08T11:50:07.221Z,1196.00
2018-05-08T11:51:07.189Z,1200.00
2018-05-08T11:52:07.239Z,1200.00
2018-05-08T11:53:07.281Z,1204.00
2018-05-08T11:54:07.257Z,1212.00
2018-05-08T11:55:07.273Z,1216.00
2018-05-08T11:56:07.269Z,1224.00
2018-05-08T11:57:07.320Z,1228.00
2018-05-08T11:58:07.302Z,1328.00
2018-05-08T11:59:07.298Z,1328.00
2018-05-08T12:00:07.368Z,1328.00
2018-05-08T12:01:07.354Z,1328.00
2018-05-08T12:02:07.359Z,1328.00
2018-05-08T12:03:07.362Z,1324.00
2018-05-08T12:04:07.376Z,1320.00
2018-05-08T12:05:07.432Z,1328.00
2018-05-08T12:06:07.429Z,1252.00
2018-05-08T12:07:07.429Z,1248.00
2018-05-08T12:08:07.449Z,1248.00
2018-05-08T12:09:07.534Z,1244.00
2018-05-08T12:10:07.542Z,1248.00
2018-05-08T12:11:07.489Z,1248.00
2018-05-08T12:12:07.513Z,1248.00
2018-05-08T12:13:07.530Z,1248.00
2018-05-08T12:14:07.545Z,1232.00
2018-05-08T12:15:07.602Z,1232.00
2018-05-08T12:16:07.569Z,1236.00
2018-05-08T12:17:07.633Z,1232.00
2018-05-08T12:18:07.599Z,1236.00
2018-05-08T12:19:07.641Z,1236.00
2018-05-08T12:20:07.631Z,1240.00
2018-05-08T12:21:07.649Z,1244.00
2018-05-08T12:22:07.694Z,1240.00
2018-05-08T12:23:07.666Z,1240.00
2018-05-08T12:24:07.737Z,1248.00
2018-05-08T12:25:07.735Z,1244.00
2018-05-08T12:26:07.713Z,1244.00
2018-05-08T12:27:07.779Z,1244.00
2018-05-08T12:28:07.794Z,1244.00
2018-05-08T12:29:07.770Z,1244.00
2018-05-08T12:30:07.824Z,1240.00
2018-05-08T12:31:07.802Z,1248.00